createdAt,value
2018-09-11T00:00:40.628Z,5.53
2018-09-11T00:03:09.191Z,5.87
2018-09-11T00:05:39.779Z,6.00
2018-09-11T00:08:08.398Z,5.92
2018-09-11T00:10:36.648Z,7.00
2018-09-11T00:13:04.787Z,5.85
2018-09-11T00:15:37.568Z,6.55
2018-09-11T00:18:05.911Z,5.97
2018-09-11T00:20:34.450Z,6.58
2018-09-11T00:23:02.989Z,6.13
2018-09-11T00:25:37.427Z,5.95
2018-09-11T00:29:47.377Z,6.50
2018-09-11T00:32:15.771Z,5.90
2018-09-11T00:34:50.926Z,8.00
2018-09-11T00:37:19.310Z,6.12
2018-09-11T00:39:47.631Z,5.87
2018-09-11T00:42:16.231Z,5.95
2018-09-11T00:44:48.823Z,5.55
2018-09-11T00:47:17.200Z,6.00
2018-09-11T00:49:45.609Z,6.87
2018-09-11T00:52:13.989Z,5.45
2018-09-11T00:54:44.331Z,5.85
2018-09-11T00:57:12.713Z,5.40
2018-09-11T00:59:40.925Z,5.90
2018-09-11T01:02:09.328Z,5.42
2018-09-11T01:04:42.758Z,5.72
2018-09-11T01:07:11.285Z,5.60
2018-09-11T01:09:39.778Z,5.33
2018-09-11T01:12:08.258Z,6.58
2018-09-11T01:14:36.760Z,5.33
2018-09-11T01:17:05.152Z,5.80
2018-09-11T01:19:33.458Z,5.72
2018-09-11T01:22:01.648Z,5.20
2018-09-11T01:24:37.302Z,5.57
2018-09-11T01:27:05.716Z,6.17
2018-09-11T01:29:34.233Z,6.28
2018-09-11T01:32:16.704Z,6.10
2018-09-11T01:34:45.141Z,6.00
2018-09-11T01:37:13.648Z,6.00
2018-09-11T01:39:43.162Z,5.90
2018-09-11T01:42:11.785Z,7.22
2018-09-11T01:44:40.481Z,6.72
2018-09-11T01:47:20.624Z,7.00
2018-09-11T01:49:48.921Z,8.10
2018-09-11T01:52:17.438Z,7.10
2018-09-11T01:54:45.801Z,6.78
2018-09-11T01:57:14.331Z,6.70
2018-09-11T01:59:42.729Z,6.90
2018-09-11T02:02:11.245Z,7.00
2018-09-11T02:04:39.545Z,7.25
2018-09-11T02:07:08.147Z,7.62
2018-09-11T02:09:36.442Z,7.22
2018-09-11T02:12:04.850Z,8.43
2018-09-11T02:14:33.244Z,8.58
2018-09-11T02:17:02.766Z,8.35
2018-09-11T02:19:31.146Z,8.10
2018-09-11T02:21:59.328Z,8.00
2018-09-11T02:24:27.872Z,8.08
2018-09-11T02:27:07.114Z,7.87
2018-09-11T02:29:35.404Z,7.40
2018-09-11T02:32:03.992Z,7.17
2018-09-11T02:34:32.307Z,6.92
2018-09-11T02:37:06.424Z,7.20
2018-09-11T02:39:34.934Z,7.15
2018-09-11T02:42:03.429Z,9.30
2018-09-11T02:44:31.968Z,7.40
2018-09-11T02:47:02.589Z,7.90
2018-09-11T02:49:30.754Z,7.22
2018-09-11T02:51:59.500Z,7.55
2018-09-11T02:54:30.128Z,7.37
2018-09-11T02:56:58.331Z,7.78
2018-09-11T02:59:26.727Z,7.80
2018-09-11T03:01:56.223Z,7.58
2018-09-11T03:04:24.532Z,7.58
2018-09-11T03:06:52.936Z,8.13
2018-09-11T03:09:21.454Z,7.85
2018-09-11T03:12:07.239Z,8.85
2018-09-11T03:14:35.522Z,9.05
2018-09-11T03:17:04.025Z,8.43
2018-09-11T03:19:32.662Z,7.92
2018-09-11T03:22:04.454Z,8.40
2018-09-11T03:24:32.833Z,8.50
2018-09-11T03:27:01.203Z,8.53
2018-09-11T03:29:29.492Z,8.23
2018-09-11T03:31:59.923Z,8.93
2018-09-11T03:34:28.348Z,8.15
2018-09-11T03:36:56.856Z,7.90
2018-09-11T03:39:25.267Z,8.70
2018-09-11T03:41:54.754Z,10.20
2018-09-11T03:44:23.281Z,8.53
2018-09-11T03:46:51.587Z,10.10
2018-09-11T03:49:20.733Z,9.80
2018-09-11T03:51:50.021Z,9.13
2018-09-11T03:54:18.742Z,9.83
2018-09-11T03:56:47.132Z,9.20
2018-09-11T03:59:15.656Z,8.98
2018-09-11T04:01:50.267Z,8.73
2018-09-11T04:04:18.662Z,9.33
2018-09-11T04:06:47.125Z,8.43
2018-09-11T04:09:15.466Z,8.80
2018-09-11T04:11:50.210Z,8.10
2018-09-11T04:14:19.274Z,9.87
2018-09-11T04:16:47.694Z,8.78
2018-09-11T04:19:15.999Z,9.15
2018-09-11T04:21:49.509Z,9.80
2018-09-11T04:24:17.921Z,8.60
2018-09-11T04:26:46.537Z,9.40
2018-09-11T04:29:16.460Z,8.10
2018-09-11T04:31:45.061Z,8.80
2018-09-11T04:34:13.687Z,9.60
2018-09-11T04:36:42.169Z,11.73
2018-09-11T04:39:15.757Z,9.70
2018-09-11T04:41:44.176Z,9.28
2018-09-11T04:44:12.475Z,10.95
2018-09-11T04:46:45.396Z,9.20
2018-09-11T04:49:13.596Z,9.30
2018-09-11T04:51:41.854Z,8.78
2018-09-11T04:54:11.618Z,8.43
2018-09-11T04:56:39.979Z,9.20
2018-09-11T04:59:08.318Z,11.30
2018-09-11T05:01:37.015Z,16.32
2018-09-11T05:04:05.624Z,11.30
2018-09-11T05:06:34.030Z,10.10
2018-09-11T05:09:03.873Z,9.13
2018-09-11T05:11:32.198Z,8.23
2018-09-11T05:14:00.444Z,11.33
2018-09-11T05:16:28.951Z,10.08
2018-09-11T05:19:02.486Z,9.20
2018-09-11T05:21:30.757Z,9.58
2018-09-11T05:23:59.147Z,8.80
2018-09-11T05:26:27.660Z,8.80
2018-09-11T05:28:56.030Z,9.38
2018-09-11T05:31:24.341Z,10.55
2018-09-11T05:33:52.755Z,10.20
2018-09-11T05:36:21.134Z,9.73
2018-09-11T05:38:56.675Z,10.90
2018-09-11T05:41:24.928Z,9.35
2018-09-11T05:43:53.467Z,9.20
2018-09-11T05:46:21.790Z,9.20
2018-09-11T05:48:53.782Z,9.65
2018-09-11T05:51:22.518Z,8.80
2018-09-11T05:53:51.000Z,9.68
2018-09-11T05:56:20.326Z,9.00
2018-09-11T05:58:48.764Z,8.75
2018-09-11T06:01:17.124Z,9.90
2018-09-11T06:03:45.413Z,8.70
2018-09-11T06:06:15.216Z,9.85
2018-09-11T06:08:43.788Z,9.58
2018-09-11T06:11:12.145Z,8.95
2018-09-11T06:13:40.351Z,8.30
2018-09-11T06:16:08.745Z,8.95
2018-09-11T06:18:37.241Z,9.90
2018-09-11T06:21:06.043Z,10.40
2018-09-11T06:23:35.097Z,7.80
2018-09-11T06:26:04.610Z,9.03
2018-09-11T06:28:33.798Z,9.80
2018-09-11T06:31:02.298Z,7.92
2018-09-11T06:33:31.493Z,8.55
2018-09-11T06:36:00.521Z,10.03
2018-09-11T06:38:29.157Z,7.47
2018-09-11T06:40:58.940Z,7.70
2018-09-11T06:43:31.270Z,8.33
2018-09-11T06:46:00.418Z,7.67
2018-09-11T06:48:29.260Z,7.78
2018-09-11T06:50:58.393Z,8.90
2018-09-11T06:53:27.343Z,13.03
2018-09-11T06:55:56.093Z,8.23
2018-09-11T06:58:25.889Z,8.23
2018-09-11T07:00:55.201Z,7.90
2018-09-11T07:03:24.313Z,8.10
2018-09-11T07:05:54.091Z,8.63
2018-09-11T07:08:22.901Z,8.07
2018-09-11T07:10:51.874Z,7.90
2018-09-11T07:13:21.101Z,7.75
2018-09-11T07:15:49.976Z,7.90
2018-09-11T07:18:19.661Z,8.65
2018-09-11T07:20:48.996Z,7.53
2018-09-11T07:23:17.905Z,7.10
2018-09-11T07:25:46.644Z,6.70
2018-09-11T07:28:15.521Z,7.20
2018-09-11T07:30:44.373Z,7.65
2018-09-11T07:33:13.852Z,8.13
2018-09-11T07:35:43.089Z,7.67
2018-09-11T07:38:13.014Z,6.80
2018-09-11T07:40:42.034Z,6.90
2018-09-11T07:43:10.358Z,6.10
2018-09-11T07:45:39.018Z,6.53
2018-09-11T07:48:09.314Z,6.20
2018-09-11T07:50:38.282Z,5.90
2018-09-11T07:53:07.234Z,6.42
2018-09-11T07:55:36.204Z,5.40
2018-09-11T07:58:05.393Z,7.28
2018-09-11T08:00:34.818Z,5.87
2018-09-11T08:03:04.249Z,5.55
2018-09-11T08:05:33.350Z,5.63
2018-09-11T08:08:02.399Z,7.83
2018-09-11T08:10:31.474Z,5.47
2018-09-11T08:13:00.438Z,5.22
2018-09-11T08:15:29.175Z,4.97
2018-09-11T08:17:57.736Z,3.90
2018-09-11T08:20:26.991Z,4.22
2018-09-11T08:22:56.333Z,8.75
2018-09-11T08:25:26.460Z,5.70
2018-09-11T08:27:55.585Z,4.47
2018-09-11T08:30:26.173Z,6.22
2018-09-11T08:32:56.496Z,4.10
2018-09-11T08:35:26.389Z,4.20
2018-09-11T08:37:56.160Z,4.00
2018-09-11T08:40:25.432Z,9.45
2018-09-11T08:42:54.343Z,4.90
2018-09-11T08:45:23.355Z,3.58
2018-09-11T08:47:53.846Z,4.97
2018-09-11T08:50:23.118Z,5.72
2018-09-11T08:52:52.587Z,4.37
2018-09-11T08:55:21.149Z,4.42
2018-09-11T08:57:50.786Z,5.12
2018-09-11T09:00:19.778Z,4.22
2018-09-11T09:02:49.003Z,5.45
2018-09-11T09:05:19.539Z,4.10
2018-09-11T09:07:48.223Z,5.05
2018-09-11T09:10:17.348Z,4.83
2018-09-11T09:12:46.035Z,4.65
2018-09-11T09:15:15.964Z,5.60
2018-09-11T09:17:45.585Z,6.33
2018-09-11T09:20:15.661Z,5.45
2018-09-11T09:22:45.565Z,5.05
2018-09-11T09:25:14.678Z,4.78
2018-09-11T09:27:43.441Z,6.47
2018-09-11T09:30:12.193Z,4.17
2018-09-11T09:32:40.939Z,5.67
2018-09-11T09:35:10.034Z,5.30
2018-09-11T09:37:38.746Z,4.60
2018-09-11T09:40:07.618Z,2.95
2018-09-11T09:42:36.944Z,3.90
2018-09-11T09:45:06.955Z,4.50
2018-09-11T09:47:36.518Z,4.72
2018-09-11T09:50:05.490Z,4.63
2018-09-11T09:52:34.370Z,3.40
2018-09-11T09:55:04.288Z,4.27
2018-09-11T09:57:33.452Z,3.45
2018-09-11T10:00:02.429Z,5.20
2018-09-11T10:02:31.035Z,4.40
2018-09-11T10:05:00.342Z,4.35
2018-09-11T10:07:29.414Z,3.62
2018-09-11T10:09:58.711Z,4.95
2018-09-11T10:12:27.878Z,3.90
2018-09-11T10:14:56.885Z,3.95
2018-09-11T10:17:26.482Z,4.25
2018-09-11T10:19:55.784Z,3.80
2018-09-11T10:22:24.462Z,3.15
2018-09-11T10:24:53.309Z,5.92
2018-09-11T10:27:22.778Z,3.37
2018-09-11T10:29:51.881Z,3.95
2018-09-11T10:32:20.877Z,4.40
2018-09-11T10:34:50.170Z,4.08
2018-09-11T10:37:18.914Z,5.10
2018-09-11T10:39:47.477Z,3.52
2018-09-11T10:42:16.863Z,4.83
2018-09-11T10:44:45.963Z,3.87
2018-09-11T10:47:15.727Z,4.50
2018-09-11T10:49:44.700Z,3.75
2018-09-11T10:52:14.149Z,5.62
2018-09-11T10:54:43.171Z,6.08
2018-09-11T10:57:12.091Z,4.17
2018-09-11T10:59:41.097Z,5.33
2018-09-11T11:02:10.323Z,4.42
2018-09-11T11:04:39.321Z,4.90
2018-09-11T11:07:09.597Z,4.78
2018-09-11T11:09:38.818Z,5.17
2018-09-11T11:12:07.807Z,6.05
2018-09-11T11:14:36.630Z,5.10
2018-09-11T11:17:05.334Z,4.47
2018-09-11T11:19:34.143Z,5.53
2018-09-11T11:22:02.545Z,5.43
2018-09-11T11:24:32.056Z,3.98
2018-09-11T11:29:31.314Z,5.40
2018-09-11T11:31:59.716Z,5.15
2018-09-11T11:34:28.216Z,4.33
2018-09-11T11:36:56.631Z,5.87
2018-09-11T11:39:24.753Z,3.97
2018-09-11T11:41:52.963Z,5.60
2018-09-11T11:44:21.428Z,3.70
2018-09-11T11:46:49.881Z,4.60
2018-09-11T11:49:18.401Z,4.50
2018-09-11T11:51:46.910Z,6.45
2018-09-11T11:54:15.421Z,5.00
2018-09-11T11:56:44.017Z,3.27
2018-09-11T11:59:12.647Z,3.90
2018-09-11T12:01:41.207Z,5.33
2018-09-11T12:04:09.830Z,4.50
2018-09-11T12:06:38.919Z,4.45
2018-09-11T12:09:09.126Z,4.80
2018-09-11T12:11:37.384Z,4.90
2018-09-11T12:14:05.864Z,4.53
2018-09-11T12:16:34.382Z,3.92
2018-09-11T12:19:02.785Z,7.10
2018-09-11T12:21:31.394Z,4.10
2018-09-11T12:23:59.826Z,6.37
2018-09-11T12:26:28.117Z,8.45
2018-09-11T12:28:56.675Z,4.92
2018-09-11T12:31:25.201Z,5.28
2018-09-11T12:33:53.674Z,3.50
2018-09-11T12:36:22.109Z,5.50
2018-09-11T12:38:50.674Z,5.25
2018-09-11T12:41:19.077Z,7.00
2018-09-11T12:43:47.504Z,5.90
2018-09-11T12:46:15.891Z,4.30
2018-09-11T12:48:44.113Z,8.25
2018-09-11T12:51:12.481Z,4.58
2018-09-11T12:53:41.003Z,12.50
2018-09-11T12:56:09.503Z,11.65
2018-09-11T12:58:38.100Z,4.30
2018-09-11T13:01:06.619Z,6.47
2018-09-11T13:03:34.903Z,4.00
2018-09-11T13:06:03.509Z,3.52
2018-09-11T13:08:32.118Z,4.42
2018-09-11T13:11:00.732Z,3.20
2018-09-11T13:13:29.301Z,4.37
2018-09-11T13:15:57.738Z,4.25
2018-09-11T13:18:26.210Z,3.83
2018-09-11T13:20:55.149Z,4.10
2018-09-11T13:23:24.159Z,4.05
2018-09-11T13:25:52.855Z,4.33
2018-09-11T13:28:22.185Z,3.72
2018-09-11T13:30:50.614Z,4.37
2018-09-11T13:33:19.282Z,4.65
2018-09-11T13:35:47.812Z,5.53
2018-09-11T13:38:16.305Z,5.42
2018-09-11T13:40:45.097Z,6.30
2018-09-11T13:43:13.716Z,5.00
2018-09-11T13:45:46.743Z,8.70
2018-09-11T13:48:15.751Z,4.70
2018-09-11T13:50:44.459Z,4.42
2018-09-11T13:53:13.042Z,4.95
2018-09-11T13:55:41.730Z,4.22
2018-09-11T13:58:10.384Z,4.70
2018-09-11T14:00:38.856Z,5.78
2018-09-11T14:03:07.559Z,4.83
2018-09-11T14:05:36.454Z,4.83
2018-09-11T14:08:05.161Z,6.10
2018-09-11T14:10:33.680Z,3.40
2018-09-11T14:13:02.174Z,4.70
2018-09-11T14:15:30.780Z,3.60
2018-09-11T14:17:59.304Z,5.15
2018-09-11T14:20:28.277Z,4.20
2018-09-11T14:22:58.009Z,3.77
2018-09-11T14:25:27.797Z,4.00
2018-09-11T14:27:58.523Z,6.60
2018-09-11T14:30:29.436Z,3.83
2018-09-11T14:32:59.124Z,4.67
2018-09-11T14:35:29.158Z,3.20
2018-09-11T14:37:59.082Z,5.08
2018-09-11T14:40:28.814Z,3.93
2018-09-11T14:42:58.665Z,6.10
2018-09-11T14:45:28.328Z,11.90
2018-09-11T14:47:58.863Z,9.58
2018-09-11T14:50:29.648Z,4.80
2018-09-11T14:52:59.151Z,4.92
2018-09-11T14:55:28.718Z,4.42
2018-09-11T14:57:58.009Z,3.80
2018-09-11T15:00:27.698Z,3.17
2018-09-11T15:02:58.703Z,3.67
2018-09-11T15:05:28.701Z,4.05
2018-09-11T15:07:58.172Z,4.53
2018-09-11T15:10:27.872Z,3.00
2018-09-11T15:12:57.262Z,3.65
2018-09-11T15:15:26.745Z,3.35
2018-09-11T15:17:57.240Z,5.00
2018-09-11T15:20:26.515Z,4.55
2018-09-11T15:22:56.135Z,4.58
2018-09-11T15:25:25.951Z,5.05
2018-09-11T15:27:55.450Z,4.30
2018-09-11T15:30:26.753Z,3.50
2018-09-11T15:32:56.444Z,5.22
2018-09-11T15:35:29.721Z,3.90
2018-09-11T15:37:59.856Z,4.55
2018-09-11T15:40:29.384Z,2.70
2018-09-11T15:42:59.114Z,3.00
2018-09-11T15:45:29.135Z,4.90
2018-09-11T15:47:58.749Z,4.28
2018-09-11T15:50:28.996Z,4.33
2018-09-11T15:52:58.992Z,3.30
2018-09-11T15:55:29.042Z,4.15
2018-09-11T15:57:59.099Z,3.05
2018-09-11T16:00:28.728Z,5.07
2018-09-11T16:02:58.265Z,3.58
2018-09-11T16:05:28.507Z,3.90
2018-09-11T16:07:58.392Z,5.15
2018-09-11T16:10:28.087Z,3.55
2018-09-11T16:13:01.580Z,3.50
2018-09-11T16:15:31.104Z,4.50
2018-09-11T16:18:00.861Z,3.20
2018-09-11T16:20:30.432Z,4.15
2018-09-11T16:22:59.825Z,4.40
2018-09-11T16:25:29.489Z,3.40
2018-09-11T16:27:59.261Z,4.50
2018-09-11T16:30:28.901Z,4.45
2018-09-11T16:32:58.635Z,3.83
2018-09-11T16:35:28.686Z,4.15
2018-09-11T16:37:58.254Z,4.10
2018-09-11T16:40:27.867Z,6.20
2018-09-11T16:42:58.131Z,4.30
2018-09-11T16:45:27.664Z,3.27
2018-09-11T16:47:57.284Z,3.90
2018-09-11T16:50:26.815Z,3.77
2018-09-11T16:52:56.845Z,3.55
2018-09-11T16:55:26.548Z,4.10
2018-09-11T16:57:56.241Z,6.70
2018-09-11T17:00:26.725Z,3.00
2018-09-11T17:02:57.715Z,3.50
2018-09-11T17:05:27.324Z,3.37
2018-09-11T17:07:57.054Z,4.58
2018-09-11T17:10:26.870Z,3.05
2018-09-11T17:12:59.316Z,3.58
2018-09-11T17:15:29.286Z,2.80
2018-09-11T17:17:59.559Z,4.10
2018-09-11T17:20:29.058Z,3.00
2018-09-11T17:22:58.977Z,4.43
2018-09-11T17:25:28.655Z,2.92
2018-09-11T17:27:58.331Z,4.30
2018-09-11T17:30:27.967Z,4.70
2018-09-11T17:32:57.747Z,4.35
2018-09-11T17:35:27.773Z,3.85
2018-09-11T17:37:57.401Z,26.90
2018-09-11T17:40:27.202Z,26.23
2018-09-11T17:42:57.464Z,14.20
2018-09-11T17:45:30.877Z,8.35
2018-09-11T17:48:00.740Z,6.97
2018-09-11T17:50:30.444Z,6.25
2018-09-11T17:52:59.924Z,5.67
2018-09-11T17:55:29.680Z,5.87
2018-09-11T17:57:59.609Z,5.15
2018-09-11T18:00:29.431Z,6.90
2018-09-11T18:03:04.470Z,6.30
2018-09-11T18:05:34.349Z,7.22
2018-09-11T18:08:04.058Z,7.40
2018-09-11T18:10:34.563Z,6.33
2018-09-11T18:13:04.248Z,6.87
2018-09-11T18:15:34.540Z,8.68
2018-09-11T18:18:04.484Z,8.78
2018-09-11T18:20:34.604Z,7.95
2018-09-11T18:23:04.600Z,9.30
2018-09-11T18:25:34.974Z,6.95
2018-09-11T18:28:05.785Z,6.05
2018-09-11T18:30:36.843Z,5.95
2018-09-11T18:33:06.997Z,4.08
2018-09-11T18:35:37.840Z,5.37
2018-09-11T18:38:08.038Z,3.50
2018-09-11T18:40:38.041Z,4.10
2018-09-11T18:43:07.565Z,5.03
2018-09-11T18:45:37.104Z,3.05
2018-09-11T18:48:06.772Z,3.92
2018-09-11T18:50:36.578Z,4.70
2018-09-11T18:53:07.929Z,3.42
2018-09-11T18:55:38.120Z,3.80
2018-09-11T18:58:08.042Z,5.25
2018-09-11T19:00:37.556Z,3.50
2018-09-11T19:03:07.356Z,4.12
2018-09-11T19:05:37.282Z,4.40
2018-09-11T19:08:06.813Z,4.27
2018-09-11T19:10:36.652Z,4.67
2018-09-11T19:13:06.383Z,5.20
2018-09-11T19:15:37.065Z,5.00
2018-09-11T19:18:06.575Z,5.42
2018-09-11T19:20:37.554Z,8.90
2018-09-11T19:23:06.813Z,5.78
2018-09-11T19:25:36.390Z,5.22
2018-09-11T19:28:05.679Z,6.30
2018-09-11T19:30:35.129Z,4.95
2018-09-11T19:33:05.047Z,6.72
2018-09-11T19:35:35.411Z,5.70
2018-09-11T19:38:05.090Z,6.03
2018-09-11T19:40:35.324Z,6.55
2018-09-11T19:43:06.466Z,4.85
2018-09-11T19:45:35.833Z,4.87
2018-09-11T19:48:06.016Z,5.12
2018-09-11T19:50:35.766Z,6.00
2018-09-11T19:53:07.514Z,6.03
2018-09-11T19:55:37.397Z,5.40
2018-09-11T19:58:07.415Z,5.97
2018-09-11T20:00:37.871Z,6.12
2018-09-11T20:03:07.225Z,5.22
2018-09-11T20:05:36.583Z,3.98
2018-09-11T20:08:06.499Z,3.92
2018-09-11T20:10:36.365Z,4.00
2018-09-11T20:13:06.024Z,3.45
2018-09-11T20:15:39.619Z,5.10
2018-09-11T20:18:09.750Z,4.85
2018-09-11T20:20:40.034Z,5.50
2018-09-11T20:23:13.592Z,3.45
2018-09-11T20:25:43.451Z,4.72
2018-09-11T20:28:13.118Z,4.25
2018-09-11T20:30:43.226Z,3.67
2018-09-11T20:33:13.236Z,5.50
2018-09-11T20:35:42.554Z,4.22
2018-09-11T20:38:12.349Z,3.80
2018-09-11T20:40:41.959Z,4.70
2018-09-11T20:43:11.996Z,4.00
2018-09-11T20:45:41.536Z,3.60
2018-09-11T20:48:15.564Z,5.00
2018-09-11T20:50:45.426Z,4.47
2018-09-11T20:53:15.304Z,4.53
2018-09-11T20:55:45.049Z,4.07
2018-09-11T20:58:14.657Z,4.20
2018-09-11T21:00:44.505Z,3.98
2018-09-11T21:03:13.841Z,4.50
2018-09-11T21:05:43.484Z,4.45
2018-09-11T21:08:14.267Z,3.80
2018-09-11T21:10:43.413Z,3.45
2018-09-11T21:13:13.408Z,4.83
2018-09-11T21:15:43.575Z,3.83
2018-09-11T21:18:16.659Z,4.43
2018-09-11T21:20:46.555Z,4.58
2018-09-11T21:23:16.558Z,4.40
2018-09-11T21:25:46.304Z,4.13
2018-09-11T21:28:16.390Z,4.47
2018-09-11T21:30:45.969Z,4.60
2018-09-11T21:33:16.216Z,4.45
2018-09-11T21:35:45.690Z,3.70
2018-09-11T21:38:19.258Z,3.85
2018-09-11T21:40:49.098Z,4.33
2018-09-11T21:43:18.871Z,5.50
2018-09-11T21:45:52.439Z,4.37
2018-09-11T21:48:25.736Z,6.00
2018-09-11T21:50:55.411Z,3.40
2018-09-11T21:53:25.385Z,3.30
2018-09-11T21:55:55.581Z,3.60
2018-09-11T21:58:25.649Z,3.62
2018-09-11T22:01:00.195Z,4.00
2018-09-11T22:03:29.872Z,4.50
2018-09-11T22:05:59.268Z,3.27
2018-09-11T22:08:28.824Z,4.92
2018-09-11T22:10:59.318Z,4.28
2018-09-11T22:13:28.708Z,4.17
2018-09-11T22:15:58.586Z,3.40
2018-09-11T22:18:28.249Z,3.60
2018-09-11T22:20:59.989Z,4.17
2018-09-11T22:23:29.797Z,3.37
2018-09-11T22:25:59.248Z,3.65
2018-09-11T22:28:29.092Z,3.40
2018-09-11T22:30:58.467Z,4.05
2018-09-11T22:33:28.338Z,4.90
2018-09-11T22:36:01.551Z,3.70
2018-09-11T22:38:31.143Z,2.90
2018-09-11T22:41:00.855Z,4.35
2018-09-11T22:43:30.437Z,4.45
2018-09-11T22:46:00.157Z,3.20
2018-09-11T22:48:29.701Z,4.53
2018-09-11T22:50:59.183Z,3.87
2018-09-11T22:53:28.967Z,3.35
2018-09-11T22:55:58.484Z,4.42
2018-09-11T22:58:30.122Z,4.03
2018-09-11T23:00:59.756Z,3.80
2018-09-11T23:03:29.614Z,3.40
2018-09-11T23:05:59.113Z,3.45
2018-09-11T23:08:29.118Z,3.80
2018-09-11T23:10:58.923Z,3.90
2018-09-11T23:13:28.595Z,4.50
2018-09-11T23:15:58.185Z,4.05
2018-09-11T23:18:27.508Z,3.22
2018-09-11T23:20:57.487Z,3.40
2018-09-11T23:23:29.562Z,3.95
2018-09-11T23:25:59.345Z,3.80
2018-09-11T23:28:29.353Z,3.25
2018-09-11T23:30:58.603Z,3.90
2018-09-11T23:33:28.154Z,4.20
2018-09-11T23:35:58.121Z,4.40
2018-09-11T23:38:27.833Z,3.10
2018-09-11T23:40:57.426Z,4.30
2018-09-11T23:43:30.694Z,4.50
2018-09-11T23:46:00.275Z,3.92
2018-09-11T23:48:29.803Z,4.85
2018-09-11T23:51:00.360Z,3.70
2018-09-11T23:53:30.232Z,3.80
2018-09-11T23:55:59.783Z,3.42
2018-09-11T23:58:29.115Z,4.42
